Clyde Township, Michigan
Current Conditions -  °F | °C
As of 11:56 PM on Friday 24 Oct 2014 (Local Time) from KPHN Reporting Station
Scattered Clouds Scattered Clouds  
Wind Chill: 46°   Ceiling: Unl
Heat Index: 46°   Visibility: 10mi
Dew Point: 43°   Wind: 0mph
Humidity: 87%   Direction: NA
Pressure: 29.94"   Gusts: NA
Location:  43.0355°N, 82.5759°W
Report Text: KPHN 250356Z AUTO 00000KT 10SM SCT040 08/06 A2994 RMK AO2
Loading
Personal Weather Stations






























Interactive Weather Map
Tropical Storm Tracking
New forecast layout! Learn more

10-Day Weather Forecast

Advertisements
Track Severe Weather on mobile